sensor_id;sensor_type;location;lat;lon;timestamp;temperature;humidity
27164;DHT22;14685;50.618;7.024;2023-02-28T00:00:43;4.80;99.90
27164;DHT22;14685;50.618;7.024;2023-02-28T00:03:11;4.70;99.90
27164;DHT22;14685;50.618;7.024;2023-02-28T00:05:41;4.70;99.90
27164;DHT22;14685;50.618;7.024;2023-02-28T00:11:57;4.60;99.90
27164;DHT22;14685;50.618;7.024;2023-02-28T00:15:57;4.60;99.90
27164;DHT22;14685;50.618;7.024;2023-02-28T00:19:37;4.50;99.90
27164;DHT22;14685;50.618;7.024;2023-02-28T00:22:29;4.50;99.90
27164;DHT22;14685;50.618;7.024;2023-02-28T00:25:27;4.40;99.90
27164;DHT22;14685;50.618;7.024;2023-02-28T00:28:38;4.40;99.90
27164;DHT22;14685;50.618;7.024;2023-02-28T00:31:16;4.30;99.90
27164;DHT22;14685;50.618;7.024;2023-02-28T00:33:47;4.20;99.90
27164;DHT22;14685;50.618;7.024;2023-02-28T00:36:17;4.20;99.90
27164;DHT22;14685;50.618;7.024;2023-02-28T00:38:48;4.10;99.90
27164;DHT22;14685;50.618;7.024;2023-02-28T00:41:28;4.10;99.90
27164;DHT22;14685;50.618;7.024;2023-02-28T00:44:01;4.00;99.90
27164;DHT22;14685;50.618;7.024;2023-02-28T00:46:31;4.00;99.90
27164;DHT22;14685;50.618;7.024;2023-02-28T00:48:59;4.00;99.90
27164;DHT22;14685;50.618;7.024;2023-02-28T00:51:31;4.00;99.90
27164;DHT22;14685;50.618;7.024;2023-02-28T00:53:59;3.90;99.90
27164;DHT22;14685;50.618;7.024;2023-02-28T00:56:29;3.90;99.90
27164;DHT22;14685;50.618;7.024;2023-02-28T00:59:11;4.00;99.90
27164;DHT22;14685;50.618;7.024;2023-02-28T01:01:57;4.00;99.90
27164;DHT22;14685;50.618;7.024;2023-02-28T01:04:26;4.10;99.90
27164;DHT22;14685;50.618;7.024;2023-02-28T01:06:54;4.00;99.90
27164;DHT22;14685;50.618;7.024;2023-02-28T01:09:21;4.00;99.90
27164;DHT22;14685;50.618;7.024;2023-02-28T01:11:48;4.00;99.90
27164;DHT22;14685;50.618;7.024;2023-02-28T01:14:17;4.10;99.90
27164;DHT22;14685;50.618;7.024;2023-02-28T01:16:45;4.10;99.90
27164;DHT22;14685;50.618;7.024;2023-02-28T01:19:14;4.10;99.90
27164;DHT22;14685;50.618;7.024;2023-02-28T01:21:45;4.10;99.90
27164;DHT22;14685;50.618;7.024;2023-02-28T01:24:12;4.10;99.90
27164;DHT22;14685;50.618;7.024;2023-02-28T01:26:39;4.10;99.90
27164;DHT22;14685;50.618;7.024;2023-02-28T01:29:06;4.10;99.90
27164;DHT22;14685;50.618;7.024;2023-02-28T01:31:33;4.10;99.90
27164;DHT22;14685;50.618;7.024;2023-02-28T01:34:01;4.20;99.90
27164;DHT22;14685;50.618;7.024;2023-02-28T01:36:29;4.20;99.90
27164;DHT22;14685;50.618;7.024;2023-02-28T01:38:56;4.20;99.90
27164;DHT22;14685;50.618;7.024;2023-02-28T01:41:29;4.20;99.90
27164;DHT22;14685;50.618;7.024;2023-02-28T01:46:34;4.10;99.90
27164;DHT22;14685;50.618;7.024;2023-02-28T01:49:09;4.10;99.90
27164;DHT22;14685;50.618;7.024;2023-02-28T01:51:43;4.10;99.90
27164;DHT22;14685;50.618;7.024;2023-02-28T01:54:24;4.10;99.90
27164;DHT22;14685;50.618;7.024;2023-02-28T01:57:07;4.10;99.90
27164;DHT22;14685;50.618;7.024;2023-02-28T01:59:42;4.10;99.90
27164;DHT22;14685;50.618;7.024;2023-02-28T02:02:18;4.00;99.90
27164;DHT22;14685;50.618;7.024;2023-02-28T02:04:55;4.00;99.90
27164;DHT22;14685;50.618;7.024;2023-02-28T02:07:25;3.90;99.90
27164;DHT22;14685;50.618;7.024;2023-02-28T02:10:17;3.90;99.90
27164;DHT22;14685;50.618;7.024;2023-02-28T02:18:33;3.90;99.90
27164;DHT22;14685;50.618;7.024;2023-02-28T02:40:54;3.90;99.90
27164;DHT22;14685;50.618;7.024;2023-02-28T02:43:31;3.90;99.90
27164;DHT22;14685;50.618;7.024;2023-02-28T02:46:09;3.90;99.90
27164;DHT22;14685;50.618;7.024;2023-02-28T02:48:39;3.80;99.90
27164;DHT22;14685;50.618;7.024;2023-02-28T02:51:16;3.80;99.90
27164;DHT22;14685;50.618;7.024;2023-02-28T02:53:50;3.80;99.90
27164;DHT22;14685;50.618;7.024;2023-02-28T02:56:21;3.80;99.90
27164;DHT22;14685;50.618;7.024;2023-02-28T02:58:50;3.80;99.90
27164;DHT22;14685;50.618;7.024;2023-02-28T03:01:22;3.90;99.90
27164;DHT22;14685;50.618;7.024;2023-02-28T03:03:59;3.90;99.90
27164;DHT22;14685;50.618;7.024;2023-02-28T03:06:28;3.90;99.90
27164;DHT22;14685;50.618;7.024;2023-02-28T03:08:55;3.90;99.90
27164;DHT22;14685;50.618;7.024;2023-02-28T03:11:23;3.90;99.90
27164;DHT22;14685;50.618;7.024;2023-02-28T03:16:33;3.90;99.90
27164;DHT22;14685;50.618;7.024;2023-02-28T03:22:00;3.80;99.90
27164;DHT22;14685;50.618;7.024;2023-02-28T03:27:29;3.70;99.90
27164;DHT22;14685;50.618;7.024;2023-02-28T03:30:00;3.60;99.90
27164;DHT22;14685;50.618;7.024;2023-02-28T03:32:57;3.60;99.90
27164;DHT22;14685;50.618;7.024;2023-02-28T03:35:31;3.50;99.90
27164;DHT22;14685;50.618;7.024;2023-02-28T03:43:58;3.40;99.90
27164;DHT22;14685;50.618;7.024;2023-02-28T03:46:32;3.40;99.90
27164;DHT22;14685;50.618;7.024;2023-02-28T03:49:16;3.40;99.90
27164;DHT22;14685;50.618;7.024;2023-02-28T03:51:45;3.40;99.90
27164;DHT22;14685;50.618;7.024;2023-02-28T03:54:17;3.40;99.90
27164;DHT22;14685;50.618;7.024;2023-02-28T03:59:36;3.30;99.90
27164;DHT22;14685;50.618;7.024;2023-02-28T04:02:05;3.30;99.90
27164;DHT22;14685;50.618;7.024;2023-02-28T04:04:32;3.30;99.90
27164;DHT22;14685;50.618;7.024;2023-02-28T04:07:08;3.30;99.90
27164;DHT22;14685;50.618;7.024;2023-02-28T04:09:37;3.40;99.90
27164;DHT22;14685;50.618;7.024;2023-02-28T04:12:04;3.30;99.90
27164;DHT22;14685;50.618;7.024;2023-02-28T04:14:31;3.30;99.90
27164;DHT22;14685;50.618;7.024;2023-02-28T04:16:58;3.30;99.90
27164;DHT22;14685;50.618;7.024;2023-02-28T04:19:25;3.20;99.90
27164;DHT22;14685;50.618;7.024;2023-02-28T04:21:54;3.20;99.90
27164;DHT22;14685;50.618;7.024;2023-02-28T04:24:24;3.10;99.90
27164;DHT22;14685;50.618;7.024;2023-02-28T04:26:53;3.10;99.90
27164;DHT22;14685;50.618;7.024;2023-02-28T04:29:24;3.10;99.90
27164;DHT22;14685;50.618;7.024;2023-02-28T04:31:51;3.00;99.90
27164;DHT22;14685;50.618;7.024;2023-02-28T04:34:20;2.90;99.90
27164;DHT22;14685;50.618;7.024;2023-02-28T04:36:48;2.80;99.90
27164;DHT22;14685;50.618;7.024;2023-02-28T04:39:38;2.80;99.90
27164;DHT22;14685;50.618;7.024;2023-02-28T04:42:05;2.70;99.90
27164;DHT22;14685;50.618;7.024;2023-02-28T04:44:32;2.70;99.90
27164;DHT22;14685;50.618;7.024;2023-02-28T04:46:59;2.70;99.90
27164;DHT22;14685;50.618;7.024;2023-02-28T04:49:28;2.70;99.90
27164;DHT22;14685;50.618;7.024;2023-02-28T04:51:55;2.60;99.90
27164;DHT22;14685;50.618;7.024;2023-02-28T04:54:22;2.60;99.90
27164;DHT22;14685;50.618;7.024;2023-02-28T04:56:49;2.60;99.90
27164;DHT22;14685;50.618;7.024;2023-02-28T04:59:16;2.60;99.90
27164;DHT22;14685;50.618;7.024;2023-02-28T05:01:46;2.50;99.90
27164;DHT22;14685;50.618;7.024;2023-02-28T05:04:14;2.50;99.90
27164;DHT22;14685;50.618;7.024;2023-02-28T05:06:41;2.50;99.90
27164;DHT22;14685;50.618;7.024;2023-02-28T05:09:09;2.50;99.90
27164;DHT22;14685;50.618;7.024;2023-02-28T05:11:39;2.50;99.90
27164;DHT22;14685;50.618;7.024;2023-02-28T05:14:12;2.50;99.90
27164;DHT22;14685;50.618;7.024;2023-02-28T05:16:39;2.40;99.90
27164;DHT22;14685;50.618;7.024;2023-02-28T05:19:07;2.40;99.90
27164;DHT22;14685;50.618;7.024;2023-02-28T05:21:36;2.40;99.90
27164;DHT22;14685;50.618;7.024;2023-02-28T05:24:07;2.40;99.90
27164;DHT22;14685;50.618;7.024;2023-02-28T05:26:37;2.40;99.90
27164;DHT22;14685;50.618;7.024;2023-02-28T05:29:05;2.30;99.90
27164;DHT22;14685;50.618;7.024;2023-02-28T05:31:32;2.30;99.90
27164;DHT22;14685;50.618;7.024;2023-02-28T05:34:00;2.30;99.90
27164;DHT22;14685;50.618;7.024;2023-02-28T05:36:27;2.30;99.90
27164;DHT22;14685;50.618;7.024;2023-02-28T05:38:54;2.30;99.90
27164;DHT22;14685;50.618;7.024;2023-02-28T05:41:22;2.20;99.90
27164;DHT22;14685;50.618;7.024;2023-02-28T05:43:50;2.40;99.90
27164;DHT22;14685;50.618;7.024;2023-02-28T05:46:17;2.60;99.90
27164;DHT22;14685;50.618;7.024;2023-02-28T05:48:47;2.60;99.90
27164;DHT22;14685;50.618;7.024;2023-02-28T05:51:15;3.20;99.90
27164;DHT22;14685;50.618;7.024;2023-02-28T05:53:42;3.40;99.90
27164;DHT22;14685;50.618;7.024;2023-02-28T05:56:09;3.30;99.90
27164;DHT22;14685;50.618;7.024;2023-02-28T05:58:36;3.20;99.90
27164;DHT22;14685;50.618;7.024;2023-02-28T06:01:31;3.10;99.90
27164;DHT22;14685;50.618;7.024;2023-02-28T06:03:59;2.90;99.90
27164;DHT22;14685;50.618;7.024;2023-02-28T06:06:28;2.70;99.90
27164;DHT22;14685;50.618;7.024;2023-02-28T06:08:56;2.70;99.90
27164;DHT22;14685;50.618;7.024;2023-02-28T06:11:23;2.60;99.90
27164;DHT22;14685;50.618;7.024;2023-02-28T06:13:57;2.50;99.90
27164;DHT22;14685;50.618;7.024;2023-02-28T06:16:28;2.50;99.90
27164;DHT22;14685;50.618;7.024;2023-02-28T06:18:57;2.60;99.90
27164;DHT22;14685;50.618;7.024;2023-02-28T06:21:25;2.50;99.90
27164;DHT22;14685;50.618;7.024;2023-02-28T06:23:52;2.60;99.90
27164;DHT22;14685;50.618;7.024;2023-02-28T06:26:20;2.60;99.90
27164;DHT22;14685;50.618;7.024;2023-02-28T06:28:48;2.60;99.90
27164;DHT22;14685;50.618;7.024;2023-02-28T06:31:16;2.60;99.90
27164;DHT22;14685;50.618;7.024;2023-02-28T06:33:46;2.60;99.90
27164;DHT22;14685;50.618;7.024;2023-02-28T06:36:16;2.60;99.90
27164;DHT22;14685;50.618;7.024;2023-02-28T06:38:43;2.60;99.90
27164;DHT22;14685;50.618;7.024;2023-02-28T06:41:10;2.50;99.90
27164;DHT22;14685;50.618;7.024;2023-02-28T06:43:40;2.60;99.90
27164;DHT22;14685;50.618;7.024;2023-02-28T06:46:08;2.60;99.90
27164;DHT22;14685;50.618;7.024;2023-02-28T06:48:36;2.60;99.90
27164;DHT22;14685;50.618;7.024;2023-02-28T06:53:31;2.60;99.90
27164;DHT22;14685;50.618;7.024;2023-02-28T06:55:58;2.60;99.90
27164;DHT22;14685;50.618;7.024;2023-02-28T06:58:25;2.60;99.90
27164;DHT22;14685;50.618;7.024;2023-02-28T07:00:52;2.70;99.90
27164;DHT22;14685;50.618;7.024;2023-02-28T07:03:20;2.60;99.90
27164;DHT22;14685;50.618;7.024;2023-02-28T07:05:48;2.70;99.90
27164;DHT22;14685;50.618;7.024;2023-02-28T07:08:15;2.70;99.90
27164;DHT22;14685;50.618;7.024;2023-02-28T07:10:42;2.70;99.90
27164;DHT22;14685;50.618;7.024;2023-02-28T07:13:08;2.60;99.90
27164;DHT22;14685;50.618;7.024;2023-02-28T07:15:36;2.50;99.90
27164;DHT22;14685;50.618;7.024;2023-02-28T07:18:07;2.60;99.90
27164;DHT22;14685;50.618;7.024;2023-02-28T07:20:34;2.60;99.90
27164;DHT22;14685;50.618;7.024;2023-02-28T07:23:01;2.80;99.90
27164;DHT22;14685;50.618;7.024;2023-02-28T07:25:29;2.90;99.90
27164;DHT22;14685;50.618;7.024;2023-02-28T07:27:56;3.00;99.90
27164;DHT22;14685;50.618;7.024;2023-02-28T07:30:23;3.20;99.90
27164;DHT22;14685;50.618;7.024;2023-02-28T07:32:50;3.40;99.90
27164;DHT22;14685;50.618;7.024;2023-02-28T07:35:16;3.70;99.90
27164;DHT22;14685;50.618;7.024;2023-02-28T07:37:43;3.90;99.90
27164;DHT22;14685;50.618;7.024;2023-02-28T07:40:11;4.10;99.90
27164;DHT22;14685;50.618;7.024;2023-02-28T07:42:38;4.40;99.90
27164;DHT22;14685;50.618;7.024;2023-02-28T07:45:06;4.60;99.90
27164;DHT22;14685;50.618;7.024;2023-02-28T07:47:33;4.70;99.90
27164;DHT22;14685;50.618;7.024;2023-02-28T07:50:00;4.90;99.90
27164;DHT22;14685;50.618;7.024;2023-02-28T07:52:27;5.00;99.90
27164;DHT22;14685;50.618;7.024;2023-02-28T07:54:54;5.30;99.90
27164;DHT22;14685;50.618;7.024;2023-02-28T07:57:21;5.40;99.90
27164;DHT22;14685;50.618;7.024;2023-02-28T07:59:48;5.50;99.90
27164;DHT22;14685;50.618;7.024;2023-02-28T08:02:16;5.60;99.90
27164;DHT22;14685;50.618;7.024;2023-02-28T08:04:44;5.70;99.90
27164;DHT22;14685;50.618;7.024;2023-02-28T08:07:15;5.90;99.90
27164;DHT22;14685;50.618;7.024;2023-02-28T08:09:43;6.00;99.90
27164;DHT22;14685;50.618;7.024;2023-02-28T08:12:10;6.10;99.90
27164;DHT22;14685;50.618;7.024;2023-02-28T08:14:38;6.30;99.90
27164;DHT22;14685;50.618;7.024;2023-02-28T08:17:06;6.40;99.90
27164;DHT22;14685;50.618;7.024;2023-02-28T08:19:33;6.60;99.90
27164;DHT22;14685;50.618;7.024;2023-02-28T08:21:59;6.80;99.90
27164;DHT22;14685;50.618;7.024;2023-02-28T08:24:27;6.90;99.90
27164;DHT22;14685;50.618;7.024;2023-02-28T08:26:54;6.90;99.90
27164;DHT22;14685;50.618;7.024;2023-02-28T08:29:21;6.90;99.90
27164;DHT22;14685;50.618;7.024;2023-02-28T08:31:48;7.00;99.90
27164;DHT22;14685;50.618;7.024;2023-02-28T08:34:16;7.10;99.90
27164;DHT22;14685;50.618;7.024;2023-02-28T08:36:43;7.20;99.90
27164;DHT22;14685;50.618;7.024;2023-02-28T08:39:12;7.20;99.90
27164;DHT22;14685;50.618;7.024;2023-02-28T08:41:39;7.10;99.90
27164;DHT22;14685;50.618;7.024;2023-02-28T08:44:08;7.10;99.90
27164;DHT22;14685;50.618;7.024;2023-02-28T08:46:35;7.30;99.90
27164;DHT22;14685;50.618;7.024;2023-02-28T08:49:02;7.40;99.90
27164;DHT22;14685;50.618;7.024;2023-02-28T08:51:29;7.60;99.90
27164;DHT22;14685;50.618;7.024;2023-02-28T08:54:00;7.70;99.90
27164;DHT22;14685;50.618;7.024;2023-02-28T08:56:28;7.70;99.90
27164;DHT22;14685;50.618;7.024;2023-02-28T08:58:56;7.60;99.90
27164;DHT22;14685;50.618;7.024;2023-02-28T09:01:28;7.60;99.90
27164;DHT22;14685;50.618;7.024;2023-02-28T09:03:57;7.80;99.90
27164;DHT22;14685;50.618;7.024;2023-02-28T09:06:26;7.70;99.30
27164;DHT22;14685;50.618;7.024;2023-02-28T09:08:56;7.70;99.90
27164;DHT22;14685;50.618;7.024;2023-02-28T09:11:28;7.70;99.60
27164;DHT22;14685;50.618;7.024;2023-02-28T09:13:55;7.20;98.80
27164;DHT22;14685;50.618;7.024;2023-02-28T09:16:26;7.40;99.70
27164;DHT22;14685;50.618;7.024;2023-02-28T09:18:53;7.30;98.60
27164;DHT22;14685;50.618;7.024;2023-02-28T09:21:20;7.30;99.40
27164;DHT22;14685;50.618;7.024;2023-02-28T09:23:48;7.30;99.50
27164;DHT22;14685;50.618;7.024;2023-02-28T09:26:24;7.50;99.10
27164;DHT22;14685;50.618;7.024;2023-02-28T09:28:54;7.40;97.70
27164;DHT22;14685;50.618;7.024;2023-02-28T09:31:25;7.50;98.60
27164;DHT22;14685;50.618;7.024;2023-02-28T09:33:54;7.50;98.70
27164;DHT22;14685;50.618;7.024;2023-02-28T09:36:23;7.30;98.00
27164;DHT22;14685;50.618;7.024;2023-02-28T09:38:59;7.30;98.80
27164;DHT22;14685;50.618;7.024;2023-02-28T09:41:27;7.50;98.60
27164;DHT22;14685;50.618;7.024;2023-02-28T09:44:00;7.60;98.60
27164;DHT22;14685;50.618;7.024;2023-02-28T09:46:42;7.60;98.30
27164;DHT22;14685;50.618;7.024;2023-02-28T09:49:16;7.60;97.60
27164;DHT22;14685;50.618;7.024;2023-02-28T09:54:29;7.60;97.10
27164;DHT22;14685;50.618;7.024;2023-02-28T09:57:01;7.50;96.70
27164;DHT22;14685;50.618;7.024;2023-02-28T10:02:46;7.60;99.10
27164;DHT22;14685;50.618;7.024;2023-02-28T10:05:17;7.80;97.40
27164;DHT22;14685;50.618;7.024;2023-02-28T10:10:41;7.70;96.70
27164;DHT22;14685;50.618;7.024;2023-02-28T10:15:45;7.60;97.00
27164;DHT22;14685;50.618;7.024;2023-02-28T10:18:15;7.50;96.80
27164;DHT22;14685;50.618;7.024;2023-02-28T10:20:47;7.60;97.10
27164;DHT22;14685;50.618;7.024;2023-02-28T10:23:25;7.40;96.30
27164;DHT22;14685;50.618;7.024;2023-02-28T10:26:11;7.40;96.60
27164;DHT22;14685;50.618;7.024;2023-02-28T10:28:38;7.30;96.80
27164;DHT22;14685;50.618;7.024;2023-02-28T10:31:13;7.00;96.40
27164;DHT22;14685;50.618;7.024;2023-02-28T10:33:41;7.00;96.50
27164;DHT22;14685;50.618;7.024;2023-02-28T10:36:14;6.90;96.40
27164;DHT22;14685;50.618;7.024;2023-02-28T10:38:41;6.70;96.10
27164;DHT22;14685;50.618;7.024;2023-02-28T10:41:12;6.70;97.00
27164;DHT22;14685;50.618;7.024;2023-02-28T10:43:40;6.80;97.30
27164;DHT22;14685;50.618;7.024;2023-02-28T10:51:11;6.90;96.80
27164;DHT22;14685;50.618;7.024;2023-02-28T10:53:45;7.00;96.90
27164;DHT22;14685;50.618;7.024;2023-02-28T10:56:27;6.80;96.40
27164;DHT22;14685;50.618;7.024;2023-02-28T11:01:46;6.80;96.80
27164;DHT22;14685;50.618;7.024;2023-02-28T11:07:00;7.00;95.30
27164;DHT22;14685;50.618;7.024;2023-02-28T11:09:34;6.90;94.60
27164;DHT22;14685;50.618;7.024;2023-02-28T11:12:05;6.80;95.20
27164;DHT22;14685;50.618;7.024;2023-02-28T11:14:53;6.80;94.90
27164;DHT22;14685;50.618;7.024;2023-02-28T11:19:51;6.50;94.70
27164;DHT22;14685;50.618;7.024;2023-02-28T11:22:22;6.50;94.60
27164;DHT22;14685;50.618;7.024;2023-02-28T11:24:53;6.60;94.70
27164;DHT22;14685;50.618;7.024;2023-02-28T11:29:59;6.80;94.10
27164;DHT22;14685;50.618;7.024;2023-02-28T11:32:28;6.90;93.80
27164;DHT22;14685;50.618;7.024;2023-02-28T11:37:36;7.00;93.60
27164;DHT22;14685;50.618;7.024;2023-02-28T11:40:18;7.00;94.30
27164;DHT22;14685;50.618;7.024;2023-02-28T11:45:42;7.10;95.00
27164;DHT22;14685;50.618;7.024;2023-02-28T11:48:31;6.90;93.50
27164;DHT22;14685;50.618;7.024;2023-02-28T11:51:05;7.00;93.10
27164;DHT22;14685;50.618;7.024;2023-02-28T11:54:00;7.10;94.00
27164;DHT22;14685;50.618;7.024;2023-02-28T11:56:44;7.30;94.50
27164;DHT22;14685;50.618;7.024;2023-02-28T11:59:55;7.30;93.70
27164;DHT22;14685;50.618;7.024;2023-02-28T12:08:06;7.10;93.30
27164;DHT22;14685;50.618;7.024;2023-02-28T12:11:06;7.10;93.30
27164;DHT22;14685;50.618;7.024;2023-02-28T12:19:19;7.00;93.20
27164;DHT22;14685;50.618;7.024;2023-02-28T12:24:40;7.00;92.60
27164;DHT22;14685;50.618;7.024;2023-02-28T12:27:13;7.10;92.70
27164;DHT22;14685;50.618;7.024;2023-02-28T12:29:50;7.10;92.90
27164;DHT22;14685;50.618;7.024;2023-02-28T12:32:23;7.10;92.80
27164;DHT22;14685;50.618;7.024;2023-02-28T12:34:56;7.10;92.70
27164;DHT22;14685;50.618;7.024;2023-02-28T12:37:29;7.10;92.90
27164;DHT22;14685;50.618;7.024;2023-02-28T12:40:04;7.20;93.60
27164;DHT22;14685;50.618;7.024;2023-02-28T12:42:38;7.00;92.60
27164;DHT22;14685;50.618;7.024;2023-02-28T12:45:29;7.10;92.50
27164;DHT22;14685;50.618;7.024;2023-02-28T12:48:04;7.00;92.80
27164;DHT22;14685;50.618;7.024;2023-02-28T12:50:32;7.00;93.10
27164;DHT22;14685;50.618;7.024;2023-02-28T12:53:06;7.00;92.90
27164;DHT22;14685;50.618;7.024;2023-02-28T12:55:49;7.10;93.40
27164;DHT22;14685;50.618;7.024;2023-02-28T12:58:39;7.10;93.30
27164;DHT22;14685;50.618;7.024;2023-02-28T13:01:33;7.10;92.80
27164;DHT22;14685;50.618;7.024;2023-02-28T13:09:27;7.10;92.80
27164;DHT22;14685;50.618;7.024;2023-02-28T13:11:56;7.10;92.80
27164;DHT22;14685;50.618;7.024;2023-02-28T13:14:27;7.00;92.70
27164;DHT22;14685;50.618;7.024;2023-02-28T13:19:33;7.10;93.50
27164;DHT22;14685;50.618;7.024;2023-02-28T13:22:02;7.10;93.40
27164;DHT22;14685;50.618;7.024;2023-02-28T13:27:37;7.20;93.40
27164;DHT22;14685;50.618;7.024;2023-02-28T13:39:44;7.30;94.20
27164;DHT22;14685;50.618;7.024;2023-02-28T13:47:44;7.00;93.00
27164;DHT22;14685;50.618;7.024;2023-02-28T13:58:59;7.10;92.90
27164;DHT22;14685;50.618;7.024;2023-02-28T14:06:59;7.10;93.60
27164;DHT22;14685;50.618;7.024;2023-02-28T14:09:41;7.10;93.80
27164;DHT22;14685;50.618;7.024;2023-02-28T14:18:05;7.10;93.20
27164;DHT22;14685;50.618;7.024;2023-02-28T14:20:33;7.10;93.20
27164;DHT22;14685;50.618;7.024;2023-02-28T14:25:54;7.10;93.00
27164;DHT22;14685;50.618;7.024;2023-02-28T14:31:45;7.20;93.70
27164;DHT22;14685;50.618;7.024;2023-02-28T14:34:41;7.20;93.90
27164;DHT22;14685;50.618;7.024;2023-02-28T14:37:13;7.20;93.70
27164;DHT22;14685;50.618;7.024;2023-02-28T14:39:44;7.20;93.70
27164;DHT22;14685;50.618;7.024;2023-02-28T14:42:47;7.10;93.60
27164;DHT22;14685;50.618;7.024;2023-02-28T14:45:19;7.10;93.60
27164;DHT22;14685;50.618;7.024;2023-02-28T14:47:48;7.20;93.90
27164;DHT22;14685;50.618;7.024;2023-02-28T14:50:21;7.20;94.20
27164;DHT22;14685;50.618;7.024;2023-02-28T14:52:52;7.20;94.00
27164;DHT22;14685;50.618;7.024;2023-02-28T14:55:24;7.20;93.60
27164;DHT22;14685;50.618;7.024;2023-02-28T14:57:56;7.20;94.00
27164;DHT22;14685;50.618;7.024;2023-02-28T15:00:29;7.20;93.90
27164;DHT22;14685;50.618;7.024;2023-02-28T15:02:58;7.30;94.20
27164;DHT22;14685;50.618;7.024;2023-02-28T15:05:29;7.20;94.20
27164;DHT22;14685;50.618;7.024;2023-02-28T15:08:04;7.20;93.90
27164;DHT22;14685;50.618;7.024;2023-02-28T15:10:33;7.10;93.80
27164;DHT22;14685;50.618;7.024;2023-02-28T15:13:06;7.20;94.20
27164;DHT22;14685;50.618;7.024;2023-02-28T15:15:56;7.20;94.20
27164;DHT22;14685;50.618;7.024;2023-02-28T15:19:13;7.20;94.00
27164;DHT22;14685;50.618;7.024;2023-02-28T15:21:38;7.10;94.00
27164;DHT22;14685;50.618;7.024;2023-02-28T15:26:54;7.10;93.80
27164;DHT22;14685;50.618;7.024;2023-02-28T15:29:24;7.30;94.10
27164;DHT22;14685;50.618;7.024;2023-02-28T15:32:01;7.20;94.20
27164;DHT22;14685;50.618;7.024;2023-02-28T15:34:41;7.20;94.30
27164;DHT22;14685;50.618;7.024;2023-02-28T15:40:22;7.10;94.10
27164;DHT22;14685;50.618;7.024;2023-02-28T15:43:04;7.10;94.20
27164;DHT22;14685;50.618;7.024;2023-02-28T15:45:49;7.20;94.60
27164;DHT22;14685;50.618;7.024;2023-02-28T15:48:23;7.20;94.50
27164;DHT22;14685;50.618;7.024;2023-02-28T15:50:53;7.20;94.20
27164;DHT22;14685;50.618;7.024;2023-02-28T15:53:28;7.20;94.40
27164;DHT22;14685;50.618;7.024;2023-02-28T15:56:19;7.10;93.90
27164;DHT22;14685;50.618;7.024;2023-02-28T15:58:48;7.10;94.20
27164;DHT22;14685;50.618;7.024;2023-02-28T16:01:29;7.00;94.00
27164;DHT22;14685;50.618;7.024;2023-02-28T16:04:01;7.00;94.30
27164;DHT22;14685;50.618;7.024;2023-02-28T16:06:43;7.00;94.50
27164;DHT22;14685;50.618;7.024;2023-02-28T16:09:14;7.00;94.30
27164;DHT22;14685;50.618;7.024;2023-02-28T16:11:43;7.00;94.60
27164;DHT22;14685;50.618;7.024;2023-02-28T16:14:17;7.00;94.60
27164;DHT22;14685;50.618;7.024;2023-02-28T16:16:47;7.10;94.80
27164;DHT22;14685;50.618;7.024;2023-02-28T16:19:17;7.00;94.50
27164;DHT22;14685;50.618;7.024;2023-02-28T16:21:44;7.10;94.30
27164;DHT22;14685;50.618;7.024;2023-02-28T16:24:12;7.10;94.70
27164;DHT22;14685;50.618;7.024;2023-02-28T16:26:41;7.20;94.70
27164;DHT22;14685;50.618;7.024;2023-02-28T16:29:13;7.20;94.70
27164;DHT22;14685;50.618;7.024;2023-02-28T16:31:41;7.20;94.60
27164;DHT22;14685;50.618;7.024;2023-02-28T16:34:08;7.10;94.50
27164;DHT22;14685;50.618;7.024;2023-02-28T16:36:34;7.20;94.80
27164;DHT22;14685;50.618;7.024;2023-02-28T16:39:01;7.20;95.10
27164;DHT22;14685;50.618;7.024;2023-02-28T16:41:29;7.20;94.80
27164;DHT22;14685;50.618;7.024;2023-02-28T16:43:59;7.20;94.80
27164;DHT22;14685;50.618;7.024;2023-02-28T16:46:34;7.10;94.70
27164;DHT22;14685;50.618;7.024;2023-02-28T16:49:01;7.20;94.90
27164;DHT22;14685;50.618;7.024;2023-02-28T16:51:29;7.20;94.70
27164;DHT22;14685;50.618;7.024;2023-02-28T16:54:00;7.20;95.20
27164;DHT22;14685;50.618;7.024;2023-02-28T16:56:27;7.20;94.80
27164;DHT22;14685;50.618;7.024;2023-02-28T16:58:57;7.20;95.00
27164;DHT22;14685;50.618;7.024;2023-02-28T17:01:26;7.20;95.10
27164;DHT22;14685;50.618;7.024;2023-02-28T17:03:54;7.30;95.60
27164;DHT22;14685;50.618;7.024;2023-02-28T17:06:26;7.30;95.60
27164;DHT22;14685;50.618;7.024;2023-02-28T17:08:58;7.40;95.40
27164;DHT22;14685;50.618;7.024;2023-02-28T17:11:27;7.40;95.60
27164;DHT22;14685;50.618;7.024;2023-02-28T17:13:55;7.40;95.50
27164;DHT22;14685;50.618;7.024;2023-02-28T17:16:23;7.40;95.60
27164;DHT22;14685;50.618;7.024;2023-02-28T17:18:53;7.40;95.70
27164;DHT22;14685;50.618;7.024;2023-02-28T17:21:21;7.40;95.10
27164;DHT22;14685;50.618;7.024;2023-02-28T17:23:48;7.40;95.60
27164;DHT22;14685;50.618;7.024;2023-02-28T17:26:15;7.40;95.80
27164;DHT22;14685;50.618;7.024;2023-02-28T17:28:48;7.40;96.20
27164;DHT22;14685;50.618;7.024;2023-02-28T17:31:15;7.40;95.70
27164;DHT22;14685;50.618;7.024;2023-02-28T17:33:43;7.40;96.10
27164;DHT22;14685;50.618;7.024;2023-02-28T17:36:21;7.40;99.90
27164;DHT22;14685;50.618;7.024;2023-02-28T17:38:49;7.30;96.50
27164;DHT22;14685;50.618;7.024;2023-02-28T17:41:17;7.40;96.30
27164;DHT22;14685;50.618;7.024;2023-02-28T17:43:45;7.30;96.30
27164;DHT22;14685;50.618;7.024;2023-02-28T17:46:17;7.30;96.40
27164;DHT22;14685;50.618;7.024;2023-02-28T17:48:45;7.30;96.50
27164;DHT22;14685;50.618;7.024;2023-02-28T17:51:13;7.30;96.60
27164;DHT22;14685;50.618;7.024;2023-02-28T17:53:41;7.30;96.60
27164;DHT22;14685;50.618;7.024;2023-02-28T17:56:20;7.30;97.00
27164;DHT22;14685;50.618;7.024;2023-02-28T17:58:47;7.30;96.90
27164;DHT22;14685;50.618;7.024;2023-02-28T18:01:14;7.30;97.30
27164;DHT22;14685;50.618;7.024;2023-02-28T18:03:41;7.30;97.80
27164;DHT22;14685;50.618;7.024;2023-02-28T18:06:17;7.20;97.70
27164;DHT22;14685;50.618;7.024;2023-02-28T18:08:45;7.20;97.40
27164;DHT22;14685;50.618;7.024;2023-02-28T18:11:12;7.20;97.50
27164;DHT22;14685;50.618;7.024;2023-02-28T18:13:45;7.20;99.90
27164;DHT22;14685;50.618;7.024;2023-02-28T18:16:12;7.30;99.90
27164;DHT22;14685;50.618;7.024;2023-02-28T18:18:40;7.40;99.90
27164;DHT22;14685;50.618;7.024;2023-02-28T18:21:07;7.30;99.90
27164;DHT22;14685;50.618;7.024;2023-02-28T18:23:34;7.30;99.90
27164;DHT22;14685;50.618;7.024;2023-02-28T18:26:05;7.20;99.70
27164;DHT22;14685;50.618;7.024;2023-02-28T18:28:33;7.10;99.80
27164;DHT22;14685;50.618;7.024;2023-02-28T18:31:07;7.00;99.90
27164;DHT22;14685;50.618;7.024;2023-02-28T18:33:34;6.90;99.90
27164;DHT22;14685;50.618;7.024;2023-02-28T18:36:01;6.80;99.90
27164;DHT22;14685;50.618;7.024;2023-02-28T18:38:28;6.80;99.90
27164;DHT22;14685;50.618;7.024;2023-02-28T18:40:56;6.70;99.90
27164;DHT22;14685;50.618;7.024;2023-02-28T18:43:26;6.60;99.90
27164;DHT22;14685;50.618;7.024;2023-02-28T18:45:52;6.50;99.90
27164;DHT22;14685;50.618;7.024;2023-02-28T18:48:20;6.50;99.90
27164;DHT22;14685;50.618;7.024;2023-02-28T18:50:49;6.50;99.90